sensor_id;sensor_type;location;lat;lon;timestamp;P1;durP1;ratioP1;P2;durP2;ratioP2
62401;SDS011;48440;51.224;22.506;2022-08-30T00:01:33;9.07;;;4.43;;
62401;SDS011;48440;51.224;22.506;2022-08-30T00:03:59;8.40;;;4.35;;
62401;SDS011;48440;51.224;22.506;2022-08-30T00:06:26;9.95;;;3.95;;
62401;SDS011;48440;51.224;22.506;2022-08-30T00:08:53;8.13;;;4.40;;
62401;SDS011;48440;51.224;22.506;2022-08-30T00:11:21;8.27;;;4.78;;
62401;SDS011;48440;51.224;22.506;2022-08-30T00:13:51;12.23;;;4.03;;
62401;SDS011;48440;51.224;22.506;2022-08-30T00:16:30;10.23;;;4.47;;
62401;SDS011;48440;51.224;22.506;2022-08-30T00:18:58;8.98;;;4.13;;
62401;SDS011;48440;51.224;22.506;2022-08-30T00:21:24;8.05;;;4.35;;
62401;SDS011;48440;51.224;22.506;2022-08-30T00:23:51;9.75;;;4.47;;
62401;SDS011;48440;51.224;22.506;2022-08-30T00:26:17;13.57;;;4.10;;
62401;SDS011;48440;51.224;22.506;2022-08-30T00:28:46;9.63;;;4.93;;
62401;SDS011;48440;51.224;22.506;2022-08-30T00:31:16;10.20;;;4.43;;
62401;SDS011;48440;51.224;22.506;2022-08-30T00:33:51;7.28;;;4.20;;
62401;SDS011;48440;51.224;22.506;2022-08-30T00:36:16;10.57;;;4.82;;
62401;SDS011;48440;51.224;22.506;2022-08-30T00:38:42;12.05;;;4.40;;
62401;SDS011;48440;51.224;22.506;2022-08-30T00:41:07;9.07;;;4.40;;
62401;SDS011;48440;51.224;22.506;2022-08-30T00:43:33;7.78;;;4.60;;
62401;SDS011;48440;51.224;22.506;2022-08-30T00:46:00;15.27;;;5.07;;
62401;SDS011;48440;51.224;22.506;2022-08-30T00:48:32;8.73;;;4.25;;
62401;SDS011;48440;51.224;22.506;2022-08-30T00:51:05;8.90;;;4.55;;
62401;SDS011;48440;51.224;22.506;2022-08-30T00:53:34;10.57;;;4.80;;
62401;SDS011;48440;51.224;22.506;2022-08-30T00:56:03;6.97;;;4.30;;
62401;SDS011;48440;51.224;22.506;2022-08-30T00:58:30;11.05;;;4.53;;
62401;SDS011;48440;51.224;22.506;2022-08-30T01:01:01;8.88;;;4.38;;
62401;SDS011;48440;51.224;22.506;2022-08-30T01:03:29;12.02;;;5.18;;
62401;SDS011;48440;51.224;22.506;2022-08-30T01:05:56;7.95;;;4.88;;
62401;SDS011;48440;51.224;22.506;2022-08-30T01:08:23;12.77;;;5.10;;
62401;SDS011;48440;51.224;22.506;2022-08-30T01:10:49;10.48;;;4.60;;
62401;SDS011;48440;51.224;22.506;2022-08-30T01:13:17;9.70;;;4.45;;
62401;SDS011;48440;51.224;22.506;2022-08-30T01:15:45;8.77;;;4.63;;
62401;SDS011;48440;51.224;22.506;2022-08-30T01:18:12;7.90;;;4.50;;
62401;SDS011;48440;51.224;22.506;2022-08-30T01:20:40;11.27;;;4.50;;
62401;SDS011;48440;51.224;22.506;2022-08-30T01:23:14;11.50;;;5.15;;
62401;SDS011;48440;51.224;22.506;2022-08-30T01:25:42;7.72;;;4.20;;
62401;SDS011;48440;51.224;22.506;2022-08-30T01:28:17;12.00;;;4.78;;
62401;SDS011;48440;51.224;22.506;2022-08-30T01:30:44;7.00;;;4.32;;
62401;SDS011;48440;51.224;22.506;2022-08-30T01:33:10;9.98;;;4.63;;
62401;SDS011;48440;51.224;22.506;2022-08-30T01:35:41;8.43;;;5.03;;
62401;SDS011;48440;51.224;22.506;2022-08-30T01:38:11;8.55;;;4.50;;
62401;SDS011;48440;51.224;22.506;2022-08-30T01:40:38;10.05;;;4.70;;
62401;SDS011;48440;51.224;22.506;2022-08-30T01:43:04;12.07;;;4.55;;
62401;SDS011;48440;51.224;22.506;2022-08-30T01:45:29;9.25;;;4.93;;
62401;SDS011;48440;51.224;22.506;2022-08-30T01:47:55;13.32;;;5.18;;
62401;SDS011;48440;51.224;22.506;2022-08-30T01:50:20;7.85;;;4.80;;
62401;SDS011;48440;51.224;22.506;2022-08-30T01:52:46;11.13;;;4.72;;
62401;SDS011;48440;51.224;22.506;2022-08-30T01:55:12;9.23;;;4.93;;
62401;SDS011;48440;51.224;22.506;2022-08-30T01:57:37;7.47;;;4.22;;
62401;SDS011;48440;51.224;22.506;2022-08-30T02:00:04;8.23;;;4.43;;
62401;SDS011;48440;51.224;22.506;2022-08-30T02:02:31;8.20;;;4.88;;
62401;SDS011;48440;51.224;22.506;2022-08-30T02:04:57;12.18;;;4.95;;
62401;SDS011;48440;51.224;22.506;2022-08-30T02:07:22;8.65;;;5.10;;
62401;SDS011;48440;51.224;22.506;2022-08-30T02:09:49;8.05;;;4.57;;
62401;SDS011;48440;51.224;22.506;2022-08-30T02:12:15;10.77;;;4.70;;
62401;SDS011;48440;51.224;22.506;2022-08-30T02:14:41;10.38;;;5.07;;
62401;SDS011;48440;51.224;22.506;2022-08-30T02:17:10;10.13;;;5.20;;
62401;SDS011;48440;51.224;22.506;2022-08-30T02:19:37;9.15;;;4.60;;
62401;SDS011;48440;51.224;22.506;2022-08-30T02:22:03;10.38;;;5.28;;
62401;SDS011;48440;51.224;22.506;2022-08-30T02:24:29;9.13;;;5.20;;
62401;SDS011;48440;51.224;22.506;2022-08-30T02:26:54;8.00;;;4.68;;
62401;SDS011;48440;51.224;22.506;2022-08-30T02:29:21;8.23;;;4.68;;
62401;SDS011;48440;51.224;22.506;2022-08-30T02:31:47;9.23;;;4.80;;
62401;SDS011;48440;51.224;22.506;2022-08-30T02:34:13;7.55;;;4.55;;
62401;SDS011;48440;51.224;22.506;2022-08-30T02:36:39;8.65;;;4.88;;
62401;SDS011;48440;51.224;22.506;2022-08-30T02:39:06;10.27;;;4.82;;
62401;SDS011;48440;51.224;22.506;2022-08-30T02:41:33;11.45;;;4.93;;
62401;SDS011;48440;51.224;22.506;2022-08-30T02:43:58;10.80;;;5.28;;
62401;SDS011;48440;51.224;22.506;2022-08-30T02:46:25;11.25;;;4.78;;
62401;SDS011;48440;51.224;22.506;2022-08-30T02:48:51;8.38;;;4.82;;
62401;SDS011;48440;51.224;22.506;2022-08-30T02:51:17;9.77;;;5.28;;
62401;SDS011;48440;51.224;22.506;2022-08-30T02:53:43;9.82;;;5.22;;
62401;SDS011;48440;51.224;22.506;2022-08-30T02:56:09;8.68;;;5.07;;
62401;SDS011;48440;51.224;22.506;2022-08-30T02:58:36;9.43;;;5.13;;
62401;SDS011;48440;51.224;22.506;2022-08-30T03:01:03;9.98;;;5.57;;
62401;SDS011;48440;51.224;22.506;2022-08-30T03:03:29;11.32;;;5.63;;
62401;SDS011;48440;51.224;22.506;2022-08-30T03:05:55;10.95;;;5.90;;
62401;SDS011;48440;51.224;22.506;2022-08-30T03:08:21;10.98;;;5.35;;
62401;SDS011;48440;51.224;22.506;2022-08-30T03:10:47;10.85;;;5.28;;
62401;SDS011;48440;51.224;22.506;2022-08-30T03:13:12;10.52;;;5.70;;
62401;SDS011;48440;51.224;22.506;2022-08-30T03:15:38;9.18;;;5.68;;
62401;SDS011;48440;51.224;22.506;2022-08-30T03:18:05;11.43;;;6.00;;
62401;SDS011;48440;51.224;22.506;2022-08-30T03:20:30;14.68;;;6.68;;
62401;SDS011;48440;51.224;22.506;2022-08-30T03:22:56;11.27;;;5.57;;
62401;SDS011;48440;51.224;22.506;2022-08-30T03:25:22;10.27;;;5.78;;
62401;SDS011;48440;51.224;22.506;2022-08-30T03:27:48;11.27;;;5.95;;
62401;SDS011;48440;51.224;22.506;2022-08-30T03:30:18;17.27;;;6.72;;
62401;SDS011;48440;51.224;22.506;2022-08-30T03:32:45;11.77;;;6.20;;
62401;SDS011;48440;51.224;22.506;2022-08-30T03:35:11;9.60;;;5.70;;
62401;SDS011;48440;51.224;22.506;2022-08-30T03:37:38;9.65;;;5.68;;
62401;SDS011;48440;51.224;22.506;2022-08-30T03:40:04;11.43;;;6.28;;
62401;SDS011;48440;51.224;22.506;2022-08-30T03:42:31;10.15;;;5.93;;
62401;SDS011;48440;51.224;22.506;2022-08-30T03:44:57;12.82;;;6.05;;
62401;SDS011;48440;51.224;22.506;2022-08-30T03:47:23;11.82;;;5.32;;
62401;SDS011;48440;51.224;22.506;2022-08-30T03:49:48;11.80;;;5.85;;
62401;SDS011;48440;51.224;22.506;2022-08-30T03:52:14;9.93;;;5.88;;
62401;SDS011;48440;51.224;22.506;2022-08-30T03:54:39;10.15;;;5.63;;
62401;SDS011;48440;51.224;22.506;2022-08-30T03:57:05;12.27;;;6.10;;
62401;SDS011;48440;51.224;22.506;2022-08-30T03:59:31;10.05;;;5.80;;
62401;SDS011;48440;51.224;22.506;2022-08-30T04:01:57;12.52;;;6.20;;
62401;SDS011;48440;51.224;22.506;2022-08-30T04:04:23;11.15;;;6.05;;
62401;SDS011;48440;51.224;22.506;2022-08-30T04:06:49;7.88;;;5.00;;
62401;SDS011;48440;51.224;22.506;2022-08-30T04:09:15;9.77;;;6.20;;
62401;SDS011;48440;51.224;22.506;2022-08-30T04:11:41;9.40;;;5.20;;
62401;SDS011;48440;51.224;22.506;2022-08-30T04:14:07;11.15;;;6.13;;
62401;SDS011;48440;51.224;22.506;2022-08-30T04:16:32;11.98;;;6.05;;
62401;SDS011;48440;51.224;22.506;2022-08-30T04:18:58;13.88;;;6.40;;
62401;SDS011;48440;51.224;22.506;2022-08-30T04:21:25;15.52;;;6.20;;
62401;SDS011;48440;51.224;22.506;2022-08-30T04:23:51;12.70;;;6.10;;
62401;SDS011;48440;51.224;22.506;2022-08-30T04:26:16;13.20;;;6.15;;
62401;SDS011;48440;51.224;22.506;2022-08-30T04:28:41;10.73;;;6.43;;
62401;SDS011;48440;51.224;22.506;2022-08-30T04:31:08;10.02;;;6.43;;
62401;SDS011;48440;51.224;22.506;2022-08-30T04:33:35;10.18;;;6.30;;
62401;SDS011;48440;51.224;22.506;2022-08-30T04:36:02;11.73;;;6.00;;
62401;SDS011;48440;51.224;22.506;2022-08-30T04:38:30;12.73;;;6.30;;
62401;SDS011;48440;51.224;22.506;2022-08-30T04:40:57;11.68;;;6.13;;
62401;SDS011;48440;51.224;22.506;2022-08-30T04:43:23;10.95;;;6.13;;
62401;SDS011;48440;51.224;22.506;2022-08-30T04:45:50;11.13;;;5.95;;
62401;SDS011;48440;51.224;22.506;2022-08-30T04:48:16;12.13;;;6.32;;
62401;SDS011;48440;51.224;22.506;2022-08-30T04:50:42;11.55;;;6.18;;
62401;SDS011;48440;51.224;22.506;2022-08-30T04:53:08;14.07;;;6.55;;
62401;SDS011;48440;51.224;22.506;2022-08-30T04:55:33;13.57;;;6.40;;
62401;SDS011;48440;51.224;22.506;2022-08-30T04:57:59;11.23;;;6.07;;
62401;SDS011;48440;51.224;22.506;2022-08-30T05:00:25;13.23;;;6.00;;
62401;SDS011;48440;51.224;22.506;2022-08-30T05:02:50;10.82;;;6.38;;
62401;SDS011;48440;51.224;22.506;2022-08-30T05:05:16;10.05;;;6.15;;
62401;SDS011;48440;51.224;22.506;2022-08-30T05:08:01;12.90;;;6.22;;
62401;SDS011;48440;51.224;22.506;2022-08-30T05:10:26;10.50;;;6.30;;
62401;SDS011;48440;51.224;22.506;2022-08-30T05:12:53;10.23;;;6.18;;
62401;SDS011;48440;51.224;22.506;2022-08-30T05:15:19;12.13;;;6.10;;
62401;SDS011;48440;51.224;22.506;2022-08-30T05:17:46;15.35;;;6.75;;
62401;SDS011;48440;51.224;22.506;2022-08-30T05:20:12;11.45;;;6.82;;
62401;SDS011;48440;51.224;22.506;2022-08-30T05:22:39;14.57;;;7.13;;
62401;SDS011;48440;51.224;22.506;2022-08-30T05:25:06;11.38;;;6.72;;
62401;SDS011;48440;51.224;22.506;2022-08-30T05:27:32;13.85;;;6.60;;
62401;SDS011;48440;51.224;22.506;2022-08-30T05:29:58;14.10;;;7.53;;
62401;SDS011;48440;51.224;22.506;2022-08-30T05:32:24;15.85;;;7.07;;
62401;SDS011;48440;51.224;22.506;2022-08-30T05:34:49;12.98;;;7.35;;
62401;SDS011;48440;51.224;22.506;2022-08-30T05:37:15;14.80;;;6.90;;
62401;SDS011;48440;51.224;22.506;2022-08-30T05:39:40;11.65;;;6.88;;
62401;SDS011;48440;51.224;22.506;2022-08-30T05:42:06;14.70;;;6.88;;
62401;SDS011;48440;51.224;22.506;2022-08-30T05:44:31;14.52;;;6.68;;
62401;SDS011;48440;51.224;22.506;2022-08-30T05:46:56;13.80;;;7.32;;
62401;SDS011;48440;51.224;22.506;2022-08-30T05:49:22;15.40;;;6.38;;
62401;SDS011;48440;51.224;22.506;2022-08-30T05:51:48;9.98;;;6.97;;
62401;SDS011;48440;51.224;22.506;2022-08-30T05:54:14;10.48;;;6.50;;
62401;SDS011;48440;51.224;22.506;2022-08-30T05:56:40;14.38;;;6.72;;
62401;SDS011;48440;51.224;22.506;2022-08-30T05:59:09;12.65;;;7.07;;
62401;SDS011;48440;51.224;22.506;2022-08-30T06:01:36;11.40;;;7.07;;
62401;SDS011;48440;51.224;22.506;2022-08-30T06:04:04;12.52;;;6.65;;
62401;SDS011;48440;51.224;22.506;2022-08-30T06:06:33;10.70;;;7.00;;
62401;SDS011;48440;51.224;22.506;2022-08-30T06:09:01;11.15;;;7.18;;
62401;SDS011;48440;51.224;22.506;2022-08-30T06:11:28;10.80;;;6.82;;
62401;SDS011;48440;51.224;22.506;2022-08-30T06:13:54;11.48;;;6.88;;
62401;SDS011;48440;51.224;22.506;2022-08-30T06:16:21;10.05;;;6.80;;
62401;SDS011;48440;51.224;22.506;2022-08-30T06:18:48;12.75;;;7.47;;
62401;SDS011;48440;51.224;22.506;2022-08-30T06:21:18;13.00;;;6.80;;
62401;SDS011;48440;51.224;22.506;2022-08-30T06:23:47;14.70;;;7.72;;
62401;SDS011;48440;51.224;22.506;2022-08-30T06:26:14;12.98;;;7.75;;
62401;SDS011;48440;51.224;22.506;2022-08-30T06:28:40;14.20;;;8.18;;
62401;SDS011;48440;51.224;22.506;2022-08-30T06:31:07;16.67;;;8.65;;
62401;SDS011;48440;51.224;22.506;2022-08-30T06:33:33;17.92;;;8.27;;
62401;SDS011;48440;51.224;22.506;2022-08-30T06:36:10;14.05;;;8.15;;
62401;SDS011;48440;51.224;22.506;2022-08-30T06:38:38;12.77;;;8.60;;
62401;SDS011;48440;51.224;22.506;2022-08-30T06:41:07;12.05;;;8.90;;
62401;SDS011;48440;51.224;22.506;2022-08-30T06:43:35;15.60;;;9.50;;
62401;SDS011;48440;51.224;22.506;2022-08-30T06:46:02;12.10;;;8.88;;
62401;SDS011;48440;51.224;22.506;2022-08-30T06:48:28;16.65;;;8.35;;
62401;SDS011;48440;51.224;22.506;2022-08-30T06:50:54;13.02;;;8.85;;
62401;SDS011;48440;51.224;22.506;2022-08-30T06:53:20;14.07;;;8.95;;
62401;SDS011;48440;51.224;22.506;2022-08-30T06:55:53;15.30;;;9.43;;
62401;SDS011;48440;51.224;22.506;2022-08-30T06:58:31;16.33;;;9.75;;
62401;SDS011;48440;51.224;22.506;2022-08-30T07:00:58;21.02;;;10.73;;
62401;SDS011;48440;51.224;22.506;2022-08-30T07:03:24;15.00;;;9.60;;
62401;SDS011;48440;51.224;22.506;2022-08-30T07:05:53;15.02;;;8.90;;
62401;SDS011;48440;51.224;22.506;2022-08-30T07:08:19;21.02;;;9.82;;
62401;SDS011;48440;51.224;22.506;2022-08-30T07:10:47;15.45;;;8.70;;
62401;SDS011;48440;51.224;22.506;2022-08-30T07:13:13;13.73;;;8.90;;
62401;SDS011;48440;51.224;22.506;2022-08-30T07:15:54;15.20;;;9.18;;
62401;SDS011;48440;51.224;22.506;2022-08-30T07:18:40;14.32;;;9.52;;
62401;SDS011;48440;51.224;22.506;2022-08-30T07:21:27;13.90;;;8.30;;
62401;SDS011;48440;51.224;22.506;2022-08-30T07:29:58;12.73;;;8.73;;
62401;SDS011;48440;51.224;22.506;2022-08-30T07:32:31;9.63;;;7.85;;
62401;SDS011;48440;51.224;22.506;2022-08-30T07:35:05;12.80;;;7.47;;
62401;SDS011;48440;51.224;22.506;2022-08-30T07:37:54;16.73;;;7.82;;
62401;SDS011;48440;51.224;22.506;2022-08-30T07:42:48;13.35;;;7.25;;
62401;SDS011;48440;51.224;22.506;2022-08-30T07:45:14;11.82;;;6.90;;
62401;SDS011;48440;51.224;22.506;2022-08-30T07:47:40;11.27;;;6.47;;
62401;SDS011;48440;51.224;22.506;2022-08-30T07:50:06;11.93;;;6.82;;
62401;SDS011;48440;51.224;22.506;2022-08-30T07:52:32;10.25;;;6.78;;
62401;SDS011;48440;51.224;22.506;2022-08-30T07:55:02;13.52;;;6.28;;
62401;SDS011;48440;51.224;22.506;2022-08-30T07:57:28;11.40;;;6.95;;
62401;SDS011;48440;51.224;22.506;2022-08-30T07:59:58;8.63;;;6.25;;
62401;SDS011;48440;51.224;22.506;2022-08-30T08:02:24;9.48;;;5.60;;
62401;SDS011;48440;51.224;22.506;2022-08-30T08:04:50;9.73;;;6.60;;
62401;SDS011;48440;51.224;22.506;2022-08-30T08:07:15;8.57;;;6.00;;
62401;SDS011;48440;51.224;22.506;2022-08-30T08:09:50;9.95;;;5.38;;
62401;SDS011;48440;51.224;22.506;2022-08-30T08:12:15;9.18;;;5.90;;
62401;SDS011;48440;51.224;22.506;2022-08-30T08:14:41;7.63;;;4.82;;
62401;SDS011;48440;51.224;22.506;2022-08-30T08:17:07;9.00;;;4.65;;
62401;SDS011;48440;51.224;22.506;2022-08-30T08:19:33;8.02;;;5.63;;
62401;SDS011;48440;51.224;22.506;2022-08-30T08:21:59;9.65;;;5.10;;
62401;SDS011;48440;51.224;22.506;2022-08-30T08:24:27;9.75;;;5.18;;
62401;SDS011;48440;51.224;22.506;2022-08-30T08:26:53;6.47;;;4.45;;
62401;SDS011;48440;51.224;22.506;2022-08-30T08:29:19;6.68;;;5.00;;
62401;SDS011;48440;51.224;22.506;2022-08-30T08:31:46;7.65;;;4.90;;
62401;SDS011;48440;51.224;22.506;2022-08-30T08:34:12;9.05;;;5.22;;
62401;SDS011;48440;51.224;22.506;2022-08-30T08:39:18;9.55;;;5.50;;
62401;SDS011;48440;51.224;22.506;2022-08-30T08:47:16;6.57;;;4.40;;
62401;SDS011;48440;51.224;22.506;2022-08-30T08:49:50;6.38;;;4.68;;
62401;SDS011;48440;51.224;22.506;2022-08-30T08:52:23;7.18;;;4.30;;
62401;SDS011;48440;51.224;22.506;2022-08-30T08:55:13;7.30;;;4.40;;
62401;SDS011;48440;51.224;22.506;2022-08-30T08:57:43;7.18;;;4.07;;
62401;SDS011;48440;51.224;22.506;2022-08-30T09:00:10;4.97;;;4.32;;
62401;SDS011;48440;51.224;22.506;2022-08-30T09:02:49;5.68;;;4.63;;
62401;SDS011;48440;51.224;22.506;2022-08-30T09:05:21;8.27;;;4.30;;
62401;SDS011;48440;51.224;22.506;2022-08-30T09:08:00;5.78;;;3.88;;
62401;SDS011;48440;51.224;22.506;2022-08-30T09:10:29;4.95;;;3.53;;
62401;SDS011;48440;51.224;22.506;2022-08-30T09:12:57;6.72;;;3.60;;
62401;SDS011;48440;51.224;22.506;2022-08-30T09:15:25;6.22;;;3.38;;
62401;SDS011;48440;51.224;22.506;2022-08-30T09:17:54;4.05;;;3.65;;
62401;SDS011;48440;51.224;22.506;2022-08-30T09:20:40;5.80;;;3.70;;
62401;SDS011;48440;51.224;22.506;2022-08-30T09:23:21;7.63;;;4.30;;
62401;SDS011;48440;51.224;22.506;2022-08-30T09:25:58;8.38;;;4.75;;
62401;SDS011;48440;51.224;22.506;2022-08-30T09:28:27;7.30;;;4.38;;
62401;SDS011;48440;51.224;22.506;2022-08-30T09:31:07;7.10;;;4.00;;
62401;SDS011;48440;51.224;22.506;2022-08-30T09:34:14;4.45;;;3.35;;
62401;SDS011;48440;51.224;22.506;2022-08-30T09:36:52;5.30;;;4.15;;
62401;SDS011;48440;51.224;22.506;2022-08-30T09:41:54;6.80;;;4.70;;
62401;SDS011;48440;51.224;22.506;2022-08-30T09:44:37;6.50;;;3.95;;
62401;SDS011;48440;51.224;22.506;2022-08-30T09:47:03;7.75;;;4.43;;
62401;SDS011;48440;51.224;22.506;2022-08-30T09:49:36;7.13;;;4.13;;
62401;SDS011;48440;51.224;22.506;2022-08-30T09:57:56;6.28;;;4.00;;
62401;SDS011;48440;51.224;22.506;2022-08-30T10:00:26;4.97;;;3.55;;
62401;SDS011;48440;51.224;22.506;2022-08-30T10:08:33;7.85;;;4.60;;
62401;SDS011;48440;51.224;22.506;2022-08-30T10:11:31;6.53;;;5.15;;
62401;SDS011;48440;51.224;22.506;2022-08-30T10:16:42;5.22;;;4.20;;
62401;SDS011;48440;51.224;22.506;2022-08-30T10:22:39;5.93;;;4.05;;
62401;SDS011;48440;51.224;22.506;2022-08-30T10:25:18;6.47;;;4.45;;
62401;SDS011;48440;51.224;22.506;2022-08-30T10:30:21;5.32;;;4.00;;
62401;SDS011;48440;51.224;22.506;2022-08-30T10:35:32;5.05;;;3.97;;
62401;SDS011;48440;51.224;22.506;2022-08-30T10:38:04;5.70;;;3.88;;
62401;SDS011;48440;51.224;22.506;2022-08-30T10:40:35;6.55;;;4.45;;
62401;SDS011;48440;51.224;22.506;2022-08-30T10:43:41;6.05;;;4.13;;
62401;SDS011;48440;51.224;22.506;2022-08-30T10:46:13;5.43;;;3.90;;
62401;SDS011;48440;51.224;22.506;2022-08-30T10:48:46;5.53;;;3.88;;
62401;SDS011;48440;51.224;22.506;2022-08-30T10:51:19;4.88;;;3.70;;
62401;SDS011;48440;51.224;22.506;2022-08-30T10:53:54;5.72;;;3.83;;
62401;SDS011;48440;51.224;22.506;2022-08-30T10:56:26;7.40;;;3.60;;
62401;SDS011;48440;51.224;22.506;2022-08-30T10:58:53;6.35;;;3.80;;
62401;SDS011;48440;51.224;22.506;2022-08-30T11:14:57;8.15;;;3.53;;
62401;SDS011;48440;51.224;22.506;2022-08-30T11:17:31;4.70;;;4.07;;
62401;SDS011;48440;51.224;22.506;2022-08-30T11:20:29;5.72;;;3.80;;
62401;SDS011;48440;51.224;22.506;2022-08-30T11:26:00;5.93;;;4.50;;
62401;SDS011;48440;51.224;22.506;2022-08-30T11:31:06;6.15;;;4.28;;
62401;SDS011;48440;51.224;22.506;2022-08-30T11:39:01;4.90;;;4.05;;
62401;SDS011;48440;51.224;22.506;2022-08-30T11:41:46;4.03;;;3.53;;
62401;SDS011;48440;51.224;22.506;2022-08-30T11:44:36;6.30;;;3.63;;
62401;SDS011;48440;51.224;22.506;2022-08-30T11:47:35;5.63;;;3.90;;
62401;SDS011;48440;51.224;22.506;2022-08-30T11:50:18;9.02;;;3.50;;
62401;SDS011;48440;51.224;22.506;2022-08-30T11:58:45;4.03;;;3.15;;
62401;SDS011;48440;51.224;22.506;2022-08-30T12:01:30;4.93;;;3.67;;
62401;SDS011;48440;51.224;22.506;2022-08-30T12:04:00;4.38;;;3.53;;
62401;SDS011;48440;51.224;22.506;2022-08-30T12:09:06;6.25;;;3.70;;
62401;SDS011;48440;51.224;22.506;2022-08-30T12:11:58;6.43;;;4.15;;
62401;SDS011;48440;51.224;22.506;2022-08-30T12:14:45;8.05;;;3.80;;
62401;SDS011;48440;51.224;22.506;2022-08-30T12:17:18;8.20;;;4.20;;
62401;SDS011;48440;51.224;22.506;2022-08-30T12:20:05;8.95;;;4.53;;
62401;SDS011;48440;51.224;22.506;2022-08-30T12:22:41;6.85;;;4.57;;
62401;SDS011;48440;51.224;22.506;2022-08-30T12:25:18;11.05;;;4.53;;
62401;SDS011;48440;51.224;22.506;2022-08-30T12:27:48;5.03;;;3.92;;
62401;SDS011;48440;51.224;22.506;2022-08-30T12:30:13;6.40;;;3.90;;
62401;SDS011;48440;51.224;22.506;2022-08-30T12:32:50;6.05;;;3.63;;
62401;SDS011;48440;51.224;22.506;2022-08-30T12:35:21;3.33;;;3.00;;
62401;SDS011;48440;51.224;22.506;2022-08-30T12:37:56;3.67;;;3.22;;
62401;SDS011;48440;51.224;22.506;2022-08-30T12:40:27;5.00;;;3.15;;
62401;SDS011;48440;51.224;22.506;2022-08-30T12:43:00;4.90;;;2.72;;
62401;SDS011;48440;51.224;22.506;2022-08-30T12:45:35;3.10;;;2.80;;
62401;SDS011;48440;51.224;22.506;2022-08-30T12:50:45;4.07;;;2.90;;
62401;SDS011;48440;51.224;22.506;2022-08-30T12:53:21;5.80;;;3.42;;
62401;SDS011;48440;51.224;22.506;2022-08-30T12:58:45;4.38;;;3.35;;
62401;SDS011;48440;51.224;22.506;2022-08-30T13:01:26;5.32;;;3.15;;
62401;SDS011;48440;51.224;22.506;2022-08-30T13:06:40;5.82;;;3.42;;
62401;SDS011;48440;51.224;22.506;2022-08-30T13:11:53;3.55;;;3.15;;
62401;SDS011;48440;51.224;22.506;2022-08-30T13:14:30;4.72;;;3.38;;
62401;SDS011;48440;51.224;22.506;2022-08-30T13:17:19;3.47;;;2.95;;
62401;SDS011;48440;51.224;22.506;2022-08-30T13:22:33;3.40;;;3.10;;
62401;SDS011;48440;51.224;22.506;2022-08-30T13:25:00;3.33;;;2.92;;
62401;SDS011;48440;51.224;22.506;2022-08-30T13:27:27;3.85;;;2.90;;
62401;SDS011;48440;51.224;22.506;2022-08-30T13:29:53;4.70;;;3.17;;
62401;SDS011;48440;51.224;22.506;2022-08-30T13:32:20;4.05;;;3.10;;
62401;SDS011;48440;51.224;22.506;2022-08-30T13:34:46;3.40;;;2.83;;
62401;SDS011;48440;51.224;22.506;2022-08-30T13:37:13;4.13;;;3.10;;
62401;SDS011;48440;51.224;22.506;2022-08-30T13:40:00;4.78;;;3.40;;
62401;SDS011;48440;51.224;22.506;2022-08-30T13:42:26;6.13;;;3.50;;
62401;SDS011;48440;51.224;22.506;2022-08-30T13:44:51;5.40;;;3.58;;
62401;SDS011;48440;51.224;22.506;2022-08-30T13:47:17;3.85;;;3.22;;
62401;SDS011;48440;51.224;22.506;2022-08-30T13:49:44;5.32;;;3.45;;
62401;SDS011;48440;51.224;22.506;2022-08-30T13:52:15;7.40;;;3.55;;
62401;SDS011;48440;51.224;22.506;2022-08-30T13:54:42;4.28;;;2.97;;
62401;SDS011;48440;51.224;22.506;2022-08-30T13:57:07;3.97;;;3.13;;
62401;SDS011;48440;51.224;22.506;2022-08-30T13:59:33;7.65;;;3.13;;
62401;SDS011;48440;51.224;22.506;2022-08-30T14:01:59;6.95;;;3.13;;
62401;SDS011;48440;51.224;22.506;2022-08-30T14:04:26;7.55;;;3.00;;
62401;SDS011;48440;51.224;22.506;2022-08-30T14:06:52;8.13;;;3.08;;
62401;SDS011;48440;51.224;22.506;2022-08-30T14:09:18;6.15;;;3.15;;
62401;SDS011;48440;51.224;22.506;2022-08-30T14:11:43;4.13;;;3.10;;
62401;SDS011;48440;51.224;22.506;2022-08-30T14:14:09;7.10;;;2.90;;
62401;SDS011;48440;51.224;22.506;2022-08-30T14:16:36;3.78;;;2.60;;
62401;SDS011;48440;51.224;22.506;2022-08-30T14:19:04;6.00;;;2.60;;
62401;SDS011;48440;51.224;22.506;2022-08-30T14:21:29;9.15;;;2.80;;
62401;SDS011;48440;51.224;22.506;2022-08-30T14:23:56;7.70;;;2.60;;
62401;SDS011;48440;51.224;22.506;2022-08-30T14:26:23;8.48;;;2.85;;
62401;SDS011;48440;51.224;22.506;2022-08-30T14:28:52;5.10;;;2.50;;
62401;SDS011;48440;51.224;22.506;2022-08-30T14:31:18;3.47;;;2.50;;
62401;SDS011;48440;51.224;22.506;2022-08-30T14:33:44;3.53;;;2.40;;
62401;SDS011;48440;51.224;22.506;2022-08-30T14:36:09;3.35;;;2.40;;
62401;SDS011;48440;51.224;22.506;2022-08-30T14:38:36;5.45;;;2.25;;
62401;SDS011;48440;51.224;22.506;2022-08-30T14:41:02;5.35;;;2.50;;
62401;SDS011;48440;51.224;22.506;2022-08-30T14:43:28;3.97;;;2.40;;
62401;SDS011;48440;51.224;22.506;2022-08-30T14:45:56;6.50;;;2.55;;
62401;SDS011;48440;51.224;22.506;2022-08-30T14:48:22;6.57;;;2.42;;
62401;SDS011;48440;51.224;22.506;2022-08-30T14:50:47;7.45;;;2.50;;
62401;SDS011;48440;51.224;22.506;2022-08-30T14:53:13;3.70;;;2.20;;
62401;SDS011;48440;51.224;22.506;2022-08-30T14:55:42;5.70;;;2.42;;
62401;SDS011;48440;51.224;22.506;2022-08-30T14:58:08;9.48;;;2.50;;
62401;SDS011;48440;51.224;22.506;2022-08-30T15:00:35;4.68;;;2.40;;
62401;SDS011;48440;51.224;22.506;2022-08-30T15:03:02;4.15;;;2.28;;
62401;SDS011;48440;51.224;22.506;2022-08-30T15:05:27;11.35;;;2.60;;
62401;SDS011;48440;51.224;22.506;2022-08-30T15:07:56;4.53;;;2.17;;
62401;SDS011;48440;51.224;22.506;2022-08-30T15:10:25;6.53;;;4.38;;
62401;SDS011;48440;51.224;22.506;2022-08-30T15:12:51;5.40;;;3.42;;
62401;SDS011;48440;51.224;22.506;2022-08-30T15:15:18;5.60;;;3.40;;
62401;SDS011;48440;51.224;22.506;2022-08-30T15:17:45;6.43;;;3.15;;
62401;SDS011;48440;51.224;22.506;2022-08-30T15:20:14;8.23;;;3.00;;
62401;SDS011;48440;51.224;22.506;2022-08-30T15:22:44;6.00;;;3.15;;
62401;SDS011;48440;51.224;22.506;2022-08-30T15:25:10;7.13;;;2.97;;
62401;SDS011;48440;51.224;22.506;2022-08-30T15:27:36;5.32;;;2.63;;
62401;SDS011;48440;51.224;22.506;2022-08-30T15:30:02;4.35;;;2.53;;
62401;SDS011;48440;51.224;22.506;2022-08-30T15:32:28;3.88;;;2.50;;
62401;SDS011;48440;51.224;22.506;2022-08-30T15:34:54;4.47;;;2.30;;
62401;SDS011;48440;51.224;22.506;2022-08-30T15:37:19;3.60;;;2.25;;
62401;SDS011;48440;51.224;22.506;2022-08-30T15:39:47;5.90;;;2.60;;
62401;SDS011;48440;51.224;22.506;2022-08-30T15:42:13;6.70;;;2.58;;
62401;SDS011;48440;51.224;22.506;2022-08-30T15:44:39;5.78;;;2.83;;
62401;SDS011;48440;51.224;22.506;2022-08-30T15:47:05;3.90;;;2.50;;
62401;SDS011;48440;51.224;22.506;2022-08-30T15:49:31;3.63;;;2.42;;
62401;SDS011;48440;51.224;22.506;2022-08-30T15:51:58;3.60;;;2.40;;
62401;SDS011;48440;51.224;22.506;2022-08-30T15:54:25;4.20;;;2.47;;
62401;SDS011;48440;51.224;22.506;2022-08-30T15:56:51;4.63;;;2.60;;
62401;SDS011;48440;51.224;22.506;2022-08-30T15:59:23;7.05;;;2.50;;
62401;SDS011;48440;51.224;22.506;2022-08-30T16:01:49;3.60;;;2.20;;
62401;SDS011;48440;51.224;22.506;2022-08-30T16:04:15;6.15;;;2.40;;
62401;SDS011;48440;51.224;22.506;2022-08-30T16:06:41;3.60;;;2.20;;
62401;SDS011;48440;51.224;22.506;2022-08-30T16:09:07;4.05;;;2.40;;